sensor_id;sensor_type;location;lat;lon;timestamp;P1;durP1;ratioP1;P2;durP2;ratioP2
41629;SDS011;27322;49.488;8.480;2022-07-23T00:00:32;8.52;;;5.43;;
41629;SDS011;27322;49.488;8.480;2022-07-23T00:02:58;8.30;;;5.13;;
41629;SDS011;27322;49.488;8.480;2022-07-23T00:05:24;9.20;;;5.10;;
41629;SDS011;27322;49.488;8.480;2022-07-23T00:07:49;11.63;;;5.95;;
41629;SDS011;27322;49.488;8.480;2022-07-23T00:10:15;7.38;;;5.18;;
41629;SDS011;27322;49.488;8.480;2022-07-23T00:12:41;9.63;;;5.40;;
41629;SDS011;27322;49.488;8.480;2022-07-23T00:15:07;6.90;;;5.20;;
41629;SDS011;27322;49.488;8.480;2022-07-23T00:17:33;8.85;;;5.22;;
41629;SDS011;27322;49.488;8.480;2022-07-23T00:19:59;8.65;;;5.05;;
41629;SDS011;27322;49.488;8.480;2022-07-23T00:22:25;7.55;;;4.93;;
41629;SDS011;27322;49.488;8.480;2022-07-23T00:24:52;7.32;;;4.82;;
41629;SDS011;27322;49.488;8.480;2022-07-23T00:27:18;7.30;;;4.88;;
41629;SDS011;27322;49.488;8.480;2022-07-23T00:29:44;6.65;;;4.70;;
41629;SDS011;27322;49.488;8.480;2022-07-23T00:32:09;6.55;;;4.47;;
41629;SDS011;27322;49.488;8.480;2022-07-23T00:34:35;9.13;;;5.13;;
41629;SDS011;27322;49.488;8.480;2022-07-23T00:37:01;9.70;;;4.57;;
41629;SDS011;27322;49.488;8.480;2022-07-23T00:39:26;6.85;;;4.82;;
41629;SDS011;27322;49.488;8.480;2022-07-23T00:41:52;6.78;;;4.32;;
41629;SDS011;27322;49.488;8.480;2022-07-23T00:44:22;6.80;;;4.72;;
41629;SDS011;27322;49.488;8.480;2022-07-23T00:46:51;7.85;;;4.80;;
41629;SDS011;27322;49.488;8.480;2022-07-23T00:49:22;8.32;;;4.82;;
41629;SDS011;27322;49.488;8.480;2022-07-23T00:51:49;8.60;;;4.57;;
41629;SDS011;27322;49.488;8.480;2022-07-23T00:54:15;5.53;;;3.95;;
41629;SDS011;27322;49.488;8.480;2022-07-23T00:56:46;6.50;;;4.55;;
41629;SDS011;27322;49.488;8.480;2022-07-23T00:59:13;7.80;;;4.50;;
41629;SDS011;27322;49.488;8.480;2022-07-23T01:01:39;7.20;;;4.25;;
41629;SDS011;27322;49.488;8.480;2022-07-23T01:04:05;5.93;;;3.97;;
41629;SDS011;27322;49.488;8.480;2022-07-23T01:06:34;6.00;;;4.18;;
41629;SDS011;27322;49.488;8.480;2022-07-23T01:09:02;6.22;;;4.15;;
41629;SDS011;27322;49.488;8.480;2022-07-23T01:11:29;7.85;;;4.00;;
41629;SDS011;27322;49.488;8.480;2022-07-23T01:13:56;6.47;;;4.45;;
41629;SDS011;27322;49.488;8.480;2022-07-23T01:16:22;7.78;;;4.22;;
41629;SDS011;27322;49.488;8.480;2022-07-23T01:18:47;7.45;;;4.22;;
41629;SDS011;27322;49.488;8.480;2022-07-23T01:21:14;9.18;;;4.50;;
41629;SDS011;27322;49.488;8.480;2022-07-23T01:23:43;6.18;;;4.22;;
41629;SDS011;27322;49.488;8.480;2022-07-23T01:26:09;7.53;;;4.00;;
41629;SDS011;27322;49.488;8.480;2022-07-23T01:28:34;7.82;;;4.47;;
41629;SDS011;27322;49.488;8.480;2022-07-23T01:31:00;8.23;;;4.70;;
41629;SDS011;27322;49.488;8.480;2022-07-23T01:33:26;6.03;;;3.97;;
41629;SDS011;27322;49.488;8.480;2022-07-23T01:35:52;7.97;;;4.85;;
41629;SDS011;27322;49.488;8.480;2022-07-23T01:38:17;8.20;;;4.70;;
41629;SDS011;27322;49.488;8.480;2022-07-23T01:40:43;7.18;;;4.50;;
41629;SDS011;27322;49.488;8.480;2022-07-23T01:43:08;7.72;;;4.75;;
41629;SDS011;27322;49.488;8.480;2022-07-23T01:45:34;7.45;;;4.55;;
41629;SDS011;27322;49.488;8.480;2022-07-23T01:48:00;6.30;;;4.20;;
41629;SDS011;27322;49.488;8.480;2022-07-23T01:50:25;7.28;;;4.50;;
41629;SDS011;27322;49.488;8.480;2022-07-23T01:52:51;7.38;;;4.72;;
41629;SDS011;27322;49.488;8.480;2022-07-23T01:55:16;6.88;;;4.60;;
41629;SDS011;27322;49.488;8.480;2022-07-23T01:57:42;8.73;;;4.50;;
41629;SDS011;27322;49.488;8.480;2022-07-23T02:00:08;6.00;;;4.78;;
41629;SDS011;27322;49.488;8.480;2022-07-23T02:02:34;6.40;;;4.60;;
41629;SDS011;27322;49.488;8.480;2022-07-23T02:05:00;6.57;;;4.72;;
41629;SDS011;27322;49.488;8.480;2022-07-23T02:07:25;7.82;;;4.53;;
41629;SDS011;27322;49.488;8.480;2022-07-23T02:09:51;8.63;;;4.78;;
41629;SDS011;27322;49.488;8.480;2022-07-23T02:12:16;7.25;;;4.53;;
41629;SDS011;27322;49.488;8.480;2022-07-23T02:14:42;6.80;;;4.32;;
41629;SDS011;27322;49.488;8.480;2022-07-23T02:17:08;7.85;;;4.45;;
41629;SDS011;27322;49.488;8.480;2022-07-23T02:19:33;6.63;;;4.35;;
41629;SDS011;27322;49.488;8.480;2022-07-23T02:21:59;6.40;;;4.53;;
41629;SDS011;27322;49.488;8.480;2022-07-23T02:24:25;7.50;;;4.50;;
41629;SDS011;27322;49.488;8.480;2022-07-23T02:26:50;7.20;;;4.75;;
41629;SDS011;27322;49.488;8.480;2022-07-23T02:29:16;6.07;;;4.22;;
41629;SDS011;27322;49.488;8.480;2022-07-23T02:31:44;5.97;;;4.38;;
41629;SDS011;27322;49.488;8.480;2022-07-23T02:34:11;8.02;;;4.50;;
41629;SDS011;27322;49.488;8.480;2022-07-23T02:36:37;9.63;;;4.63;;
41629;SDS011;27322;49.488;8.480;2022-07-23T02:39:04;6.20;;;4.45;;
41629;SDS011;27322;49.488;8.480;2022-07-23T02:41:30;6.68;;;4.43;;
41629;SDS011;27322;49.488;8.480;2022-07-23T02:43:55;7.47;;;4.43;;
41629;SDS011;27322;49.488;8.480;2022-07-23T02:46:21;7.70;;;5.05;;
41629;SDS011;27322;49.488;8.480;2022-07-23T02:48:47;7.95;;;4.57;;
41629;SDS011;27322;49.488;8.480;2022-07-23T02:51:12;5.82;;;4.07;;
41629;SDS011;27322;49.488;8.480;2022-07-23T02:53:38;9.32;;;4.65;;
41629;SDS011;27322;49.488;8.480;2022-07-23T02:56:04;9.45;;;5.13;;
41629;SDS011;27322;49.488;8.480;2022-07-23T02:58:29;6.95;;;4.93;;
41629;SDS011;27322;49.488;8.480;2022-07-23T03:00:55;10.93;;;5.15;;
41629;SDS011;27322;49.488;8.480;2022-07-23T03:03:21;7.38;;;4.95;;
41629;SDS011;27322;49.488;8.480;2022-07-23T03:05:47;8.25;;;4.90;;
41629;SDS011;27322;49.488;8.480;2022-07-23T03:08:12;8.77;;;4.80;;
41629;SDS011;27322;49.488;8.480;2022-07-23T03:10:38;7.68;;;4.72;;
41629;SDS011;27322;49.488;8.480;2022-07-23T03:13:04;8.50;;;4.75;;
41629;SDS011;27322;49.488;8.480;2022-07-23T03:15:29;7.57;;;5.10;;
41629;SDS011;27322;49.488;8.480;2022-07-23T03:17:55;8.10;;;4.63;;
41629;SDS011;27322;49.488;8.480;2022-07-23T03:20:20;7.90;;;5.22;;
41629;SDS011;27322;49.488;8.480;2022-07-23T03:22:55;7.55;;;5.25;;
41629;SDS011;27322;49.488;8.480;2022-07-23T03:25:21;9.63;;;4.97;;
41629;SDS011;27322;49.488;8.480;2022-07-23T03:27:46;7.90;;;5.28;;
41629;SDS011;27322;49.488;8.480;2022-07-23T03:30:12;6.38;;;4.95;;
41629;SDS011;27322;49.488;8.480;2022-07-23T03:32:38;10.32;;;4.97;;
41629;SDS011;27322;49.488;8.480;2022-07-23T03:35:04;7.18;;;5.10;;
41629;SDS011;27322;49.488;8.480;2022-07-23T03:37:30;8.43;;;5.40;;
41629;SDS011;27322;49.488;8.480;2022-07-23T03:39:55;8.35;;;5.50;;
41629;SDS011;27322;49.488;8.480;2022-07-23T03:42:21;9.35;;;5.70;;
41629;SDS011;27322;49.488;8.480;2022-07-23T03:44:47;10.05;;;5.80;;
41629;SDS011;27322;49.488;8.480;2022-07-23T03:47:12;8.63;;;6.07;;
41629;SDS011;27322;49.488;8.480;2022-07-23T03:49:38;8.88;;;5.85;;
41629;SDS011;27322;49.488;8.480;2022-07-23T03:52:04;7.82;;;5.13;;
41629;SDS011;27322;49.488;8.480;2022-07-23T03:54:29;8.05;;;5.82;;
41629;SDS011;27322;49.488;8.480;2022-07-23T03:56:55;10.27;;;5.72;;
41629;SDS011;27322;49.488;8.480;2022-07-23T03:59:21;8.07;;;6.07;;
41629;SDS011;27322;49.488;8.480;2022-07-23T04:01:47;9.50;;;5.88;;
41629;SDS011;27322;49.488;8.480;2022-07-23T04:04:12;9.77;;;6.13;;
41629;SDS011;27322;49.488;8.480;2022-07-23T04:06:38;7.82;;;5.80;;
41629;SDS011;27322;49.488;8.480;2022-07-23T04:09:03;10.80;;;6.13;;
41629;SDS011;27322;49.488;8.480;2022-07-23T04:11:29;8.85;;;5.93;;
41629;SDS011;27322;49.488;8.480;2022-07-23T04:13:55;8.32;;;6.07;;
41629;SDS011;27322;49.488;8.480;2022-07-23T04:16:21;9.52;;;6.00;;
41629;SDS011;27322;49.488;8.480;2022-07-23T04:18:46;8.68;;;6.22;;
41629;SDS011;27322;49.488;8.480;2022-07-23T04:21:12;9.88;;;6.18;;
41629;SDS011;27322;49.488;8.480;2022-07-23T04:23:37;8.80;;;6.75;;
41629;SDS011;27322;49.488;8.480;2022-07-23T04:26:03;8.30;;;5.93;;
41629;SDS011;27322;49.488;8.480;2022-07-23T04:28:29;12.00;;;6.45;;
41629;SDS011;27322;49.488;8.480;2022-07-23T04:30:58;8.38;;;6.28;;
41629;SDS011;27322;49.488;8.480;2022-07-23T04:33:24;9.25;;;6.30;;
41629;SDS011;27322;49.488;8.480;2022-07-23T04:35:49;10.15;;;6.65;;
41629;SDS011;27322;49.488;8.480;2022-07-23T04:38:15;8.93;;;6.32;;
41629;SDS011;27322;49.488;8.480;2022-07-23T04:40:41;10.68;;;6.75;;
41629;SDS011;27322;49.488;8.480;2022-07-23T04:43:06;9.40;;;6.93;;
41629;SDS011;27322;49.488;8.480;2022-07-23T04:45:32;10.27;;;7.32;;
41629;SDS011;27322;49.488;8.480;2022-07-23T04:47:58;14.18;;;8.65;;
41629;SDS011;27322;49.488;8.480;2022-07-23T04:50:23;14.45;;;9.07;;
41629;SDS011;27322;49.488;8.480;2022-07-23T04:52:49;11.05;;;8.63;;
41629;SDS011;27322;49.488;8.480;2022-07-23T04:55:15;12.45;;;8.30;;
41629;SDS011;27322;49.488;8.480;2022-07-23T04:57:41;12.90;;;9.02;;
41629;SDS011;27322;49.488;8.480;2022-07-23T05:00:07;13.38;;;9.23;;
41629;SDS011;27322;49.488;8.480;2022-07-23T05:02:33;17.05;;;10.00;;
41629;SDS011;27322;49.488;8.480;2022-07-23T05:04:59;14.38;;;9.90;;
41629;SDS011;27322;49.488;8.480;2022-07-23T05:07:25;15.57;;;10.55;;
41629;SDS011;27322;49.488;8.480;2022-07-23T05:09:50;12.27;;;9.65;;
41629;SDS011;27322;49.488;8.480;2022-07-23T05:12:16;15.90;;;10.85;;
41629;SDS011;27322;49.488;8.480;2022-07-23T05:14:42;14.20;;;10.02;;
41629;SDS011;27322;49.488;8.480;2022-07-23T05:17:07;13.27;;;9.52;;
41629;SDS011;27322;49.488;8.480;2022-07-23T05:19:33;13.15;;;9.98;;
41629;SDS011;27322;49.488;8.480;2022-07-23T05:21:59;16.88;;;10.75;;
41629;SDS011;27322;49.488;8.480;2022-07-23T05:24:25;18.00;;;11.35;;
41629;SDS011;27322;49.488;8.480;2022-07-23T05:26:51;16.92;;;10.70;;
41629;SDS011;27322;49.488;8.480;2022-07-23T05:29:17;14.13;;;9.80;;
41629;SDS011;27322;49.488;8.480;2022-07-23T05:31:42;14.45;;;10.45;;
41629;SDS011;27322;49.488;8.480;2022-07-23T05:34:08;16.35;;;10.00;;
41629;SDS011;27322;49.488;8.480;2022-07-23T05:36:34;14.23;;;10.38;;
41629;SDS011;27322;49.488;8.480;2022-07-23T05:38:59;13.75;;;9.95;;
41629;SDS011;27322;49.488;8.480;2022-07-23T05:41:25;16.58;;;11.32;;
41629;SDS011;27322;49.488;8.480;2022-07-23T05:43:50;15.75;;;11.40;;
41629;SDS011;27322;49.488;8.480;2022-07-23T05:46:16;14.70;;;11.23;;
41629;SDS011;27322;49.488;8.480;2022-07-23T05:48:42;13.77;;;10.32;;
41629;SDS011;27322;49.488;8.480;2022-07-23T05:51:08;14.48;;;10.68;;
41629;SDS011;27322;49.488;8.480;2022-07-23T05:53:34;14.50;;;11.07;;
41629;SDS011;27322;49.488;8.480;2022-07-23T05:56:00;14.57;;;10.73;;
41629;SDS011;27322;49.488;8.480;2022-07-23T05:58:26;14.52;;;10.80;;
41629;SDS011;27322;49.488;8.480;2022-07-23T06:00:52;14.43;;;10.70;;
41629;SDS011;27322;49.488;8.480;2022-07-23T06:03:18;15.23;;;11.77;;
41629;SDS011;27322;49.488;8.480;2022-07-23T06:05:43;15.90;;;11.55;;
41629;SDS011;27322;49.488;8.480;2022-07-23T06:08:09;15.80;;;11.45;;
41629;SDS011;27322;49.488;8.480;2022-07-23T06:10:35;13.90;;;10.25;;
41629;SDS011;27322;49.488;8.480;2022-07-23T06:13:00;14.43;;;11.20;;
41629;SDS011;27322;49.488;8.480;2022-07-23T06:15:26;15.57;;;11.13;;
41629;SDS011;27322;49.488;8.480;2022-07-23T06:17:51;17.67;;;12.02;;
41629;SDS011;27322;49.488;8.480;2022-07-23T06:20:17;17.77;;;12.00;;
41629;SDS011;27322;49.488;8.480;2022-07-23T06:22:43;15.57;;;11.52;;
41629;SDS011;27322;49.488;8.480;2022-07-23T06:25:09;15.25;;;11.20;;
41629;SDS011;27322;49.488;8.480;2022-07-23T06:27:34;13.57;;;10.10;;
41629;SDS011;27322;49.488;8.480;2022-07-23T06:30:00;12.85;;;9.70;;
41629;SDS011;27322;49.488;8.480;2022-07-23T06:32:25;14.65;;;10.65;;
41629;SDS011;27322;49.488;8.480;2022-07-23T06:34:51;13.20;;;10.45;;
41629;SDS011;27322;49.488;8.480;2022-07-23T06:37:17;13.52;;;10.15;;
41629;SDS011;27322;49.488;8.480;2022-07-23T06:39:42;13.73;;;10.52;;
41629;SDS011;27322;49.488;8.480;2022-07-23T06:42:08;13.18;;;10.73;;
41629;SDS011;27322;49.488;8.480;2022-07-23T06:44:35;16.33;;;11.70;;
41629;SDS011;27322;49.488;8.480;2022-07-23T06:47:01;16.83;;;11.90;;
41629;SDS011;27322;49.488;8.480;2022-07-23T06:49:26;14.73;;;11.48;;
41629;SDS011;27322;49.488;8.480;2022-07-23T06:51:52;20.55;;;12.00;;
41629;SDS011;27322;49.488;8.480;2022-07-23T06:54:17;16.67;;;11.50;;
41629;SDS011;27322;49.488;8.480;2022-07-23T06:56:43;17.17;;;12.25;;
41629;SDS011;27322;49.488;8.480;2022-07-23T06:59:11;17.55;;;11.75;;
41629;SDS011;27322;49.488;8.480;2022-07-23T07:01:37;16.02;;;11.13;;
41629;SDS011;27322;49.488;8.480;2022-07-23T07:04:03;14.85;;;10.80;;
41629;SDS011;27322;49.488;8.480;2022-07-23T07:06:29;15.23;;;11.13;;
41629;SDS011;27322;49.488;8.480;2022-07-23T07:08:54;14.45;;;11.10;;
41629;SDS011;27322;49.488;8.480;2022-07-23T07:11:20;13.93;;;10.50;;
41629;SDS011;27322;49.488;8.480;2022-07-23T07:13:46;15.45;;;11.32;;
41629;SDS011;27322;49.488;8.480;2022-07-23T07:16:12;16.15;;;11.77;;
41629;SDS011;27322;49.488;8.480;2022-07-23T07:18:37;13.27;;;10.68;;
41629;SDS011;27322;49.488;8.480;2022-07-23T07:21:03;13.38;;;9.77;;
41629;SDS011;27322;49.488;8.480;2022-07-23T07:23:29;12.93;;;9.93;;
41629;SDS011;27322;49.488;8.480;2022-07-23T07:25:54;13.40;;;10.18;;
41629;SDS011;27322;49.488;8.480;2022-07-23T07:28:20;15.38;;;11.02;;
41629;SDS011;27322;49.488;8.480;2022-07-23T07:30:45;13.48;;;9.98;;
41629;SDS011;27322;49.488;8.480;2022-07-23T07:33:11;15.27;;;11.98;;
41629;SDS011;27322;49.488;8.480;2022-07-23T07:35:37;12.77;;;10.00;;
41629;SDS011;27322;49.488;8.480;2022-07-23T07:38:02;13.07;;;9.60;;
41629;SDS011;27322;49.488;8.480;2022-07-23T07:40:28;13.35;;;9.52;;
41629;SDS011;27322;49.488;8.480;2022-07-23T07:42:54;14.23;;;9.63;;
41629;SDS011;27322;49.488;8.480;2022-07-23T07:45:21;11.05;;;7.97;;
41629;SDS011;27322;49.488;8.480;2022-07-23T07:47:48;12.80;;;8.63;;
41629;SDS011;27322;49.488;8.480;2022-07-23T07:50:15;11.05;;;8.88;;
41629;SDS011;27322;49.488;8.480;2022-07-23T07:52:41;12.60;;;8.02;;
41629;SDS011;27322;49.488;8.480;2022-07-23T07:55:08;9.75;;;7.18;;
41629;SDS011;27322;49.488;8.480;2022-07-23T07:57:34;10.43;;;8.40;;
41629;SDS011;27322;49.488;8.480;2022-07-23T08:00:00;10.23;;;7.25;;
41629;SDS011;27322;49.488;8.480;2022-07-23T08:02:26;11.55;;;7.63;;
41629;SDS011;27322;49.488;8.480;2022-07-23T08:04:52;9.88;;;7.13;;
41629;SDS011;27322;49.488;8.480;2022-07-23T08:07:18;10.90;;;7.32;;
41629;SDS011;27322;49.488;8.480;2022-07-23T08:09:44;10.52;;;7.60;;
41629;SDS011;27322;49.488;8.480;2022-07-23T08:12:10;10.75;;;7.80;;
41629;SDS011;27322;49.488;8.480;2022-07-23T08:14:35;10.90;;;7.70;;
41629;SDS011;27322;49.488;8.480;2022-07-23T08:17:01;10.18;;;7.47;;
41629;SDS011;27322;49.488;8.480;2022-07-23T08:19:27;10.07;;;7.80;;
41629;SDS011;27322;49.488;8.480;2022-07-23T08:21:52;10.80;;;7.70;;
41629;SDS011;27322;49.488;8.480;2022-07-23T08:24:18;10.43;;;7.80;;
41629;SDS011;27322;49.488;8.480;2022-07-23T08:26:44;10.43;;;7.47;;
41629;SDS011;27322;49.488;8.480;2022-07-23T08:29:09;10.52;;;7.95;;
41629;SDS011;27322;49.488;8.480;2022-07-23T08:31:35;9.45;;;7.25;;
41629;SDS011;27322;49.488;8.480;2022-07-23T08:34:01;11.55;;;8.15;;
41629;SDS011;27322;49.488;8.480;2022-07-23T08:36:27;9.05;;;7.13;;
41629;SDS011;27322;49.488;8.480;2022-07-23T08:38:57;8.88;;;6.95;;
41629;SDS011;27322;49.488;8.480;2022-07-23T08:41:28;10.65;;;7.35;;
41629;SDS011;27322;49.488;8.480;2022-07-23T08:43:54;11.70;;;7.63;;
41629;SDS011;27322;49.488;8.480;2022-07-23T08:46:20;10.65;;;7.20;;
41629;SDS011;27322;49.488;8.480;2022-07-23T08:48:48;9.35;;;6.43;;
41629;SDS011;27322;49.488;8.480;2022-07-23T08:51:15;9.20;;;6.97;;
41629;SDS011;27322;49.488;8.480;2022-07-23T08:53:41;8.85;;;6.57;;
41629;SDS011;27322;49.488;8.480;2022-07-23T08:56:07;9.70;;;7.03;;
41629;SDS011;27322;49.488;8.480;2022-07-23T08:58:33;11.18;;;7.88;;
41629;SDS011;27322;49.488;8.480;2022-07-23T09:00:59;12.10;;;7.95;;
41629;SDS011;27322;49.488;8.480;2022-07-23T09:03:30;10.80;;;7.50;;
41629;SDS011;27322;49.488;8.480;2022-07-23T09:06:01;11.40;;;8.38;;
41629;SDS011;27322;49.488;8.480;2022-07-23T09:08:40;13.55;;;7.80;;
41629;SDS011;27322;49.488;8.480;2022-07-23T09:11:07;11.15;;;8.57;;
41629;SDS011;27322;49.488;8.480;2022-07-23T09:13:41;13.10;;;8.77;;
41629;SDS011;27322;49.488;8.480;2022-07-23T09:16:25;9.90;;;7.70;;
41629;SDS011;27322;49.488;8.480;2022-07-23T09:18:55;10.88;;;8.23;;
41629;SDS011;27322;49.488;8.480;2022-07-23T09:23:56;13.73;;;10.77;;
41629;SDS011;27322;49.488;8.480;2022-07-23T09:26:27;13.07;;;9.23;;
41629;SDS011;27322;49.488;8.480;2022-07-23T09:29:07;14.18;;;9.82;;
41629;SDS011;27322;49.488;8.480;2022-07-23T09:31:43;13.82;;;10.38;;
41629;SDS011;27322;49.488;8.480;2022-07-23T09:36:48;11.50;;;9.05;;
41629;SDS011;27322;49.488;8.480;2022-07-23T09:39:16;14.90;;;10.15;;
41629;SDS011;27322;49.488;8.480;2022-07-23T09:41:52;15.68;;;11.35;;
41629;SDS011;27322;49.488;8.480;2022-07-23T09:44:18;12.73;;;10.55;;
41629;SDS011;27322;49.488;8.480;2022-07-23T09:46:46;14.88;;;10.40;;
41629;SDS011;27322;49.488;8.480;2022-07-23T09:51:45;14.98;;;10.63;;
41629;SDS011;27322;49.488;8.480;2022-07-23T09:54:33;12.35;;;10.82;;
41629;SDS011;27322;49.488;8.480;2022-07-23T09:57:03;13.02;;;10.32;;
41629;SDS011;27322;49.488;8.480;2022-07-23T09:59:37;14.63;;;11.80;;
41629;SDS011;27322;49.488;8.480;2022-07-23T10:02:03;18.33;;;11.85;;
41629;SDS011;27322;49.488;8.480;2022-07-23T10:04:31;14.20;;;11.48;;
41629;SDS011;27322;49.488;8.480;2022-07-23T10:06:58;18.45;;;13.13;;
41629;SDS011;27322;49.488;8.480;2022-07-23T10:09:34;15.00;;;11.82;;
41629;SDS011;27322;49.488;8.480;2022-07-23T10:12:04;14.55;;;10.02;;
41629;SDS011;27322;49.488;8.480;2022-07-23T10:14:35;13.82;;;11.25;;
41629;SDS011;27322;49.488;8.480;2022-07-23T10:17:03;14.40;;;11.15;;
41629;SDS011;27322;49.488;8.480;2022-07-23T10:19:29;14.07;;;11.15;;
41629;SDS011;27322;49.488;8.480;2022-07-23T10:21:57;13.57;;;10.45;;
41629;SDS011;27322;49.488;8.480;2022-07-23T10:30:36;13.50;;;10.20;;
41629;SDS011;27322;49.488;8.480;2022-07-23T10:38:54;14.63;;;12.27;;
41629;SDS011;27322;49.488;8.480;2022-07-23T10:41:33;14.48;;;11.73;;
41629;SDS011;27322;49.488;8.480;2022-07-23T10:46:34;13.65;;;10.32;;
41629;SDS011;27322;49.488;8.480;2022-07-23T10:49:25;13.25;;;10.20;;
41629;SDS011;27322;49.488;8.480;2022-07-23T10:54:56;14.38;;;11.70;;
41629;SDS011;27322;49.488;8.480;2022-07-23T10:57:48;13.93;;;10.68;;
41629;SDS011;27322;49.488;8.480;2022-07-23T11:00:24;11.35;;;9.38;;
41629;SDS011;27322;49.488;8.480;2022-07-23T11:02:55;13.07;;;10.70;;
41629;SDS011;27322;49.488;8.480;2022-07-23T11:05:24;12.60;;;9.90;;
41629;SDS011;27322;49.488;8.480;2022-07-23T11:19:11;10.55;;;7.28;;
41629;SDS011;27322;49.488;8.480;2022-07-23T11:31:53;11.73;;;8.02;;
41629;SDS011;27322;49.488;8.480;2022-07-23T11:37:05;9.15;;;8.00;;
41629;SDS011;27322;49.488;8.480;2022-07-23T11:39:32;10.35;;;7.20;;
41629;SDS011;27322;49.488;8.480;2022-07-23T11:42:00;9.82;;;8.20;;
41629;SDS011;27322;49.488;8.480;2022-07-23T11:44:30;10.73;;;8.18;;
41629;SDS011;27322;49.488;8.480;2022-07-23T11:47:01;9.00;;;7.78;;
41629;SDS011;27322;49.488;8.480;2022-07-23T11:49:27;10.23;;;8.23;;
41629;SDS011;27322;49.488;8.480;2022-07-23T11:52:10;9.65;;;7.55;;
41629;SDS011;27322;49.488;8.480;2022-07-23T11:54:46;9.70;;;7.82;;
41629;SDS011;27322;49.488;8.480;2022-07-23T12:00:21;10.05;;;7.57;;
41629;SDS011;27322;49.488;8.480;2022-07-23T12:02:53;11.85;;;8.40;;
41629;SDS011;27322;49.488;8.480;2022-07-23T12:05:22;9.45;;;7.60;;
41629;SDS011;27322;49.488;8.480;2022-07-23T12:07:49;10.73;;;6.95;;
41629;SDS011;27322;49.488;8.480;2022-07-23T12:12:51;9.23;;;7.20;;
41629;SDS011;27322;49.488;8.480;2022-07-23T12:15:19;10.32;;;8.32;;
41629;SDS011;27322;49.488;8.480;2022-07-23T12:17:47;9.88;;;7.68;;
41629;SDS011;27322;49.488;8.480;2022-07-23T12:20:18;8.80;;;6.85;;
41629;SDS011;27322;49.488;8.480;2022-07-23T12:22:49;12.13;;;7.70;;
41629;SDS011;27322;49.488;8.480;2022-07-23T12:25:21;8.75;;;6.60;;
41629;SDS011;27322;49.488;8.480;2022-07-23T12:30:45;12.05;;;7.28;;
41629;SDS011;27322;49.488;8.480;2022-07-23T12:33:31;9.88;;;7.10;;
41629;SDS011;27322;49.488;8.480;2022-07-23T12:36:00;8.80;;;6.95;;
41629;SDS011;27322;49.488;8.480;2022-07-23T12:38:36;9.77;;;7.43;;
41629;SDS011;27322;49.488;8.480;2022-07-23T12:41:11;10.50;;;7.47;;
41629;SDS011;27322;49.488;8.480;2022-07-23T12:43:38;10.13;;;7.57;;
41629;SDS011;27322;49.488;8.480;2022-07-23T12:46:09;9.65;;;7.55;;
41629;SDS011;27322;49.488;8.480;2022-07-23T12:48:36;10.07;;;6.97;;
41629;SDS011;27322;49.488;8.480;2022-07-23T12:51:12;10.10;;;7.45;;
41629;SDS011;27322;49.488;8.480;2022-07-23T12:53:41;9.80;;;7.22;;
41629;SDS011;27322;49.488;8.480;2022-07-23T12:56:13;12.77;;;8.52;;
41629;SDS011;27322;49.488;8.480;2022-07-23T12:58:49;9.23;;;8.23;;
41629;SDS011;27322;49.488;8.480;2022-07-23T13:03:54;11.77;;;8.18;;
41629;SDS011;27322;49.488;8.480;2022-07-23T13:06:19;11.57;;;8.30;;
41629;SDS011;27322;49.488;8.480;2022-07-23T13:08:45;9.75;;;8.07;;
41629;SDS011;27322;49.488;8.480;2022-07-23T13:11:11;12.63;;;8.20;;
41629;SDS011;27322;49.488;8.480;2022-07-23T13:13:36;10.63;;;7.88;;
41629;SDS011;27322;49.488;8.480;2022-07-23T13:16:02;8.60;;;7.15;;
41629;SDS011;27322;49.488;8.480;2022-07-23T13:18:28;9.07;;;7.15;;
41629;SDS011;27322;49.488;8.480;2022-07-23T13:20:54;10.02;;;7.40;;
41629;SDS011;27322;49.488;8.480;2022-07-23T13:23:20;8.45;;;6.85;;
41629;SDS011;27322;49.488;8.480;2022-07-23T13:25:47;9.48;;;7.50;;
41629;SDS011;27322;49.488;8.480;2022-07-23T13:28:13;11.77;;;6.90;;
41629;SDS011;27322;49.488;8.480;2022-07-23T13:30:40;8.05;;;7.13;;
41629;SDS011;27322;49.488;8.480;2022-07-23T13:33:07;9.80;;;7.45;;
41629;SDS011;27322;49.488;8.480;2022-07-23T13:35:33;9.50;;;6.80;;
41629;SDS011;27322;49.488;8.480;2022-07-23T13:38:01;8.60;;;6.75;;
41629;SDS011;27322;49.488;8.480;2022-07-23T13:40:27;9.25;;;6.65;;
41629;SDS011;27322;49.488;8.480;2022-07-23T13:42:53;8.88;;;6.55;;
41629;SDS011;27322;49.488;8.480;2022-07-23T13:45:19;9.55;;;6.90;;
41629;SDS011;27322;49.488;8.480;2022-07-23T13:47:45;8.35;;;6.95;;
41629;SDS011;27322;49.488;8.480;2022-07-23T13:50:11;7.90;;;7.00;;
41629;SDS011;27322;49.488;8.480;2022-07-23T13:52:36;9.13;;;6.80;;
41629;SDS011;27322;49.488;8.480;2022-07-23T13:55:03;9.38;;;7.03;;
41629;SDS011;27322;49.488;8.480;2022-07-23T13:57:30;7.85;;;6.78;;
41629;SDS011;27322;49.488;8.480;2022-07-23T13:59:57;8.32;;;6.57;;
41629;SDS011;27322;49.488;8.480;2022-07-23T14:02:23;10.43;;;6.78;;
41629;SDS011;27322;49.488;8.480;2022-07-23T14:04:49;8.80;;;7.30;;
41629;SDS011;27322;49.488;8.480;2022-07-23T14:07:15;9.82;;;6.88;;
41629;SDS011;27322;49.488;8.480;2022-07-23T14:09:41;7.65;;;6.32;;
41629;SDS011;27322;49.488;8.480;2022-07-23T14:12:07;9.52;;;7.13;;
41629;SDS011;27322;49.488;8.480;2022-07-23T14:14:33;11.05;;;7.82;;
41629;SDS011;27322;49.488;8.480;2022-07-23T14:16:59;11.95;;;7.75;;
41629;SDS011;27322;49.488;8.480;2022-07-23T14:19:25;9.45;;;6.40;;
41629;SDS011;27322;49.488;8.480;2022-07-23T14:21:50;8.32;;;5.78;;
41629;SDS011;27322;49.488;8.480;2022-07-23T14:24:16;10.52;;;6.60;;
41629;SDS011;27322;49.488;8.480;2022-07-23T14:26:42;8.77;;;6.55;;
41629;SDS011;27322;49.488;8.480;2022-07-23T14:29:09;9.80;;;6.93;;
41629;SDS011;27322;49.488;8.480;2022-07-23T14:31:35;8.88;;;6.75;;
41629;SDS011;27322;49.488;8.480;2022-07-23T14:34:01;7.85;;;6.00;;
41629;SDS011;27322;49.488;8.480;2022-07-23T14:36:27;8.85;;;6.43;;
41629;SDS011;27322;49.488;8.480;2022-07-23T14:38:52;7.90;;;5.50;;
41629;SDS011;27322;49.488;8.480;2022-07-23T14:41:18;6.20;;;5.22;;
41629;SDS011;27322;49.488;8.480;2022-07-23T14:43:44;7.05;;;4.93;;
41629;SDS011;27322;49.488;8.480;2022-07-23T14:46:10;6.95;;;4.97;;
41629;SDS011;27322;49.488;8.480;2022-07-23T14:48:37;6.40;;;4.85;;
41629;SDS011;27322;49.488;8.480;2022-07-23T14:51:03;7.13;;;5.13;;
41629;SDS011;27322;49.488;8.480;2022-07-23T14:53:29;6.40;;;5.28;;
41629;SDS011;27322;49.488;8.480;2022-07-23T14:55:55;5.85;;;4.93;;
41629;SDS011;27322;49.488;8.480;2022-07-23T14:58:22;6.63;;;5.22;;
41629;SDS011;27322;49.488;8.480;2022-07-23T15:00:48;6.82;;;5.07;;
41629;SDS011;27322;49.488;8.480;2022-07-23T15:03:14;6.60;;;5.40;;
41629;SDS011;27322;49.488;8.480;2022-07-23T15:05:39;6.80;;;5.63;;
41629;SDS011;27322;49.488;8.480;2022-07-23T15:08:05;7.60;;;5.28;;
41629;SDS011;27322;49.488;8.480;2022-07-23T15:10:31;7.10;;;5.90;;
41629;SDS011;27322;49.488;8.480;2022-07-23T15:12:56;7.20;;;6.10;;
41629;SDS011;27322;49.488;8.480;2022-07-23T15:15:22;8.35;;;6.30;;
41629;SDS011;27322;49.488;8.480;2022-07-23T15:17:47;8.07;;;6.22;;
41629;SDS011;27322;49.488;8.480;2022-07-23T15:20:13;7.90;;;6.05;;
41629;SDS011;27322;49.488;8.480;2022-07-23T15:22:39;7.80;;;6.43;;
41629;SDS011;27322;49.488;8.480;2022-07-23T15:25:05;8.32;;;6.18;;
41629;SDS011;27322;49.488;8.480;2022-07-23T15:27:31;8.20;;;6.65;;
41629;SDS011;27322;49.488;8.480;2022-07-23T15:29:56;8.55;;;6.88;;
41629;SDS011;27322;49.488;8.480;2022-07-23T15:32:22;9.00;;;6.78;;
41629;SDS011;27322;49.488;8.480;2022-07-23T15:34:51;8.35;;;6.43;;
41629;SDS011;27322;49.488;8.480;2022-07-23T15:37:17;8.95;;;6.18;;